Time;durP1;ratioP1;P1;durP2;ratioP2;P2;SDS_P1;SDS_P2;PMS_P1;PMS_P2;Temp;Humidity;BMP_temperature;BMP_pressure;BME280_temperature;BME280_humidity;BME280_pressure;Samples;Min_cycle;Max_cycle;Signal;HPM_P1;HPM_P2
2022/11/29 00:00:05;;;;;;;53.70;23.00;;;;;;;;;;5030717;28;20523;-71
2022/11/29 00:02:38;;;;;;;53.20;23.23;;;;;;;;;;5016746;28;20790;-71
2022/11/29 00:05:05;;;;;;;56.23;22.87;;;;;;;;;;5010988;28;20458;-71
2022/11/29 00:07:33;;;;;;;53.47;23.63;;;;;;;;;;5001795;28;20886;-71
2022/11/29 00:09:59;;;;;;;53.87;22.80;;;;;;;;;;5009600;28;20455;-71
2022/11/29 00:12:26;;;;;;;52.73;23.07;;;;;;;;;;4995185;28;20436;-71
2022/11/29 00:14:52;;;;;;;55.03;22.97;;;;;;;;;;5008945;28;20527;-71
2022/11/29 00:17:19;;;;;;;55.37;22.60;;;;;;;;;;5001028;28;20474;-71
2022/11/29 00:20:03;;;;;;;57.67;22.73;;;;;;;;;;5008856;28;20450;-71
2022/11/29 00:22:31;;;;;;;53.50;22.53;;;;;;;;;;5007622;28;20434;-71
2022/11/29 00:24:58;;;;;;;55.97;21.73;;;;;;;;;;4994795;28;20452;-71
2022/11/29 00:27:24;;;;;;;51.83;23.43;;;;;;;;;;5008364;28;20451;-71
2022/11/29 00:29:51;;;;;;;53.83;22.67;;;;;;;;;;5009421;28;20546;-71
2022/11/29 00:32:18;;;;;;;57.17;23.67;;;;;;;;;;4998755;28;20485;-71
2022/11/29 00:34:44;;;;;;;53.17;22.67;;;;;;;;;;4989961;28;20474;-71
2022/11/29 00:37:11;;;;;;;53.40;23.13;;;;;;;;;;4978486;28;20468;-71
2022/11/29 00:39:38;;;;;;;51.30;22.27;;;;;;;;;;5004670;28;20466;-71
2022/11/29 00:42:04;;;;;;;50.30;21.70;;;;;;;;;;5008865;28;20465;-71
2022/11/29 00:44:31;;;;;;;58.07;21.60;;;;;;;;;;4992835;28;20452;-71
2022/11/29 00:46:57;;;;;;;54.03;21.10;;;;;;;;;;4982317;28;20890;-71
2022/11/29 00:49:24;;;;;;;51.10;21.07;;;;;;;;;;4987203;28;20509;-71
2022/11/29 00:51:50;;;;;;;53.20;22.20;;;;;;;;;;5008387;28;20457;-71
2022/11/29 00:54:17;;;;;;;48.90;20.57;;;;;;;;;;4991798;28;20460;-71
2022/11/29 00:56:44;;;;;;;49.43;21.23;;;;;;;;;;5000011;28;20577;-71
2022/11/29 00:59:10;;;;;;;46.27;21.87;;;;;;;;;;4994848;28;20517;-71
2022/11/29 01:01:39;;;;;;;49.57;21.17;;;;;;;;;;4989472;28;20438;-71
2022/11/29 01:04:06;;;;;;;53.40;21.00;;;;;;;;;;4994063;28;20474;-71
2022/11/29 01:06:32;;;;;;;47.83;19.67;;;;;;;;;;4989893;28;20553;-71
2022/11/29 01:08:59;;;;;;;46.03;20.07;;;;;;;;;;4987936;28;20455;-71
2022/11/29 01:11:26;;;;;;;44.73;20.83;;;;;;;;;;4973620;28;20486;-71
2022/11/29 01:13:53;;;;;;;49.87;19.87;;;;;;;;;;5013483;28;20451;-71
2022/11/29 01:16:20;;;;;;;45.50;19.90;;;;;;;;;;4994117;28;20487;-71
2022/11/29 01:18:46;;;;;;;45.37;19.90;;;;;;;;;;4991519;28;20982;-71
2022/11/29 01:21:18;;;;;;;43.93;19.77;;;;;;;;;;4991191;28;20461;-71
2022/11/29 01:24:02;;;;;;;46.03;20.50;;;;;;;;;;5009345;28;20415;-71
2022/11/29 01:26:29;;;;;;;44.23;19.87;;;;;;;;;;5005750;28;20992;-71
2022/11/29 01:28:56;;;;;;;44.67;20.13;;;;;;;;;;4972552;28;20475;-71
2022/11/29 01:31:27;;;;;;;45.17;19.80;;;;;;;;;;4993183;28;20549;-71
2022/11/29 01:33:54;;;;;;;43.03;18.97;;;;;;;;;;4976216;28;20488;-71
2022/11/29 01:36:20;;;;;;;40.77;19.40;;;;;;;;;;4986921;28;20434;-71
2022/11/29 01:38:47;;;;;;;44.53;18.33;;;;;;;;;;4987967;28;20474;-71
2022/11/29 01:41:15;;;;;;;43.83;18.57;;;;;;;;;;4988186;28;20432;-71
2022/11/29 01:43:54;;;;;;;44.70;19.17;;;;;;;;;;4999523;28;20988;-71
2022/11/29 01:46:21;;;;;;;41.33;18.90;;;;;;;;;;4997664;28;20494;-71
2022/11/29 01:48:47;;;;;;;43.87;17.83;;;;;;;;;;4986987;28;20468;-71
2022/11/29 01:51:14;;;;;;;44.07;18.73;;;;;;;;;;4989437;28;21046;-71
2022/11/29 01:53:40;;;;;;;41.20;18.07;;;;;;;;;;5008970;28;20437;-71
2022/11/29 01:56:07;;;;;;;33.40;15.60;;;;;;;;;;4998358;28;20514;-71
2022/11/29 01:58:34;;;;;;;36.77;16.47;;;;;;;;;;4994158;28;20492;-71
2022/11/29 02:01:00;;;;;;;33.47;15.83;;;;;;;;;;4992461;28;20491;-71
2022/11/29 02:03:27;;;;;;;36.33;16.20;;;;;;;;;;4968104;28;20794;-71
2022/11/29 02:05:53;;;;;;;35.33;15.67;;;;;;;;;;4989818;28;21207;-71
2022/11/29 02:08:29;;;;;;;40.97;17.13;;;;;;;;;;4980355;28;20444;-71
2022/11/29 02:11:03;;;;;;;35.03;16.20;;;;;;;;;;4980835;28;20461;-71
2022/11/29 02:13:33;;;;;;;35.20;16.73;;;;;;;;;;4992026;28;20913;-71
2022/11/29 02:16:02;;;;;;;43.27;17.00;;;;;;;;;;4991449;28;20530;-71
2022/11/29 02:18:38;;;;;;;38.23;15.73;;;;;;;;;;4988056;28;20483;-71
2022/11/29 02:21:10;;;;;;;34.43;15.17;;;;;;;;;;4971259;28;20446;-71
2022/11/29 02:23:43;;;;;;;32.07;14.30;;;;;;;;;;4971511;28;20452;-71
2022/11/29 02:26:33;;;;;;;33.93;16.13;;;;;;;;;;4986597;28;20454;-71
2022/11/29 02:29:02;;;;;;;38.87;17.07;;;;;;;;;;4960187;28;20509;-71
2022/11/29 02:31:41;;;;;;;35.77;15.77;;;;;;;;;;4988600;28;20550;-71
2022/11/29 02:34:10;;;;;;;34.33;16.30;;;;;;;;;;4988655;28;20427;-71
2022/11/29 02:36:54;;;;;;;38.73;17.10;;;;;;;;;;4986532;28;20787;-71
2022/11/29 02:39:23;;;;;;;40.67;16.20;;;;;;;;;;4990895;28;20437;-71
2022/11/29 02:41:50;;;;;;;35.67;16.10;;;;;;;;;;4988820;28;20861;-71
2022/11/29 02:44:35;;;;;;;41.40;16.97;;;;;;;;;;4999143;28;20542;-71
2022/11/29 02:47:02;;;;;;;34.47;16.70;;;;;;;;;;4998158;28;20452;-71
2022/11/29 02:49:40;;;;;;;37.00;16.97;;;;;;;;;;4987842;28;21056;-71
2022/11/29 02:52:09;;;;;;;38.27;17.00;;;;;;;;;;4987441;28;20463;-71
2022/11/29 02:54:39;;;;;;;39.37;17.63;;;;;;;;;;4971155;28;21008;-71
2022/11/29 02:57:10;;;;;;;42.60;18.37;;;;;;;;;;5002648;28;20584;-71
2022/11/29 03:00:14;;;;;;;37.97;17.33;;;;;;;;;;4981164;28;20448;-71
2022/11/29 03:02:48;;;;;;;40.10;17.50;;;;;;;;;;4992239;28;20469;-71
2022/11/29 03:05:19;;;;;;;39.00;17.30;;;;;;;;;;4992747;28;21198;-71
2022/11/29 03:07:55;;;;;;;41.87;17.13;;;;;;;;;;4977835;28;20466;-71
2022/11/29 03:10:36;;;;;;;35.50;16.00;;;;;;;;;;4990267;28;20445;-71
2022/11/29 03:13:04;;;;;;;34.07;16.07;;;;;;;;;;5003486;28;20462;-71
2022/11/29 03:15:56;;;;;;;34.93;16.57;;;;;;;;;;4997799;28;20828;-71
2022/11/29 03:18:41;;;;;;;35.87;15.00;;;;;;;;;;4971348;28;20480;-71
2022/11/29 03:21:18;;;;;;;34.17;15.63;;;;;;;;;;4988928;28;20490;-71
2022/11/29 03:24:04;;;;;;;31.30;15.00;;;;;;;;;;4989038;28;20457;-71
2022/11/29 03:26:44;;;;;;;38.07;16.50;;;;;;;;;;4992150;28;20471;-71
2022/11/29 03:29:22;;;;;;;36.27;15.83;;;;;;;;;;4992343;28;20843;-71
2022/11/29 03:32:09;;;;;;;35.03;14.10;;;;;;;;;;5003402;28;20451;-71
2022/11/29 03:34:38;;;;;;;33.10;14.43;;;;;;;;;;4998812;28;20554;-72
2022/11/29 03:37:08;;;;;;;28.03;13.10;;;;;;;;;;4991922;28;20489;-72
2022/11/29 03:39:41;;;;;;;34.60;14.90;;;;;;;;;;4974511;28;20503;-72
2022/11/29 03:42:29;;;;;;;31.50;14.63;;;;;;;;;;4982194;28;20531;-72
2022/11/29 03:45:14;;;;;;;31.80;14.13;;;;;;;;;;5004747;28;20472;-72
2022/11/29 03:47:48;;;;;;;30.57;14.17;;;;;;;;;;5002187;28;20482;-72
2022/11/29 03:50:34;;;;;;;29.53;15.03;;;;;;;;;;4978134;28;20539;-71
2022/11/29 03:53:36;;;;;;;29.97;14.07;;;;;;;;;;4995432;28;20438;-72
2022/11/29 03:56:03;;;;;;;28.00;13.60;;;;;;;;;;5011428;28;20458;-71
2022/11/29 03:58:49;;;;;;;28.17;13.23;;;;;;;;;;4996613;28;20474;-72
2022/11/29 04:01:18;;;;;;;25.00;10.93;;;;;;;;;;4992744;28;20454;-72
2022/11/29 04:04:03;;;;;;;25.27;11.50;;;;;;;;;;4994710;28;20456;-71
2022/11/29 04:06:29;;;;;;;24.53;12.13;;;;;;;;;;4991080;28;21041;-71
2022/11/29 04:09:04;;;;;;;22.57;11.97;;;;;;;;;;4994476;28;20811;-72
2022/11/29 04:11:34;;;;;;;25.23;11.70;;;;;;;;;;4984260;28;20474;-72
2022/11/29 04:14:23;;;;;;;24.60;12.00;;;;;;;;;;4991263;28;20488;-72
2022/11/29 04:16:56;;;;;;;23.27;11.87;;;;;;;;;;4991163;28;20455;-72
2022/11/29 04:19:32;;;;;;;23.07;11.43;;;;;;;;;;4992568;28;20554;-71
2022/11/29 04:22:19;;;;;;;27.17;13.20;;;;;;;;;;5009245;28;20784;-71
2022/11/29 04:25:23;;;;;;;26.07;12.20;;;;;;;;;;5004583;28;20945;-71
2022/11/29 04:27:52;;;;;;;23.50;11.70;;;;;;;;;;4996168;28;20451;-71
2022/11/29 04:30:55;;;;;;;27.27;13.13;;;;;;;;;;4986844;28;20948;-69
2022/11/29 04:33:24;;;;;;;24.10;12.90;;;;;;;;;;5004896;28;20466;-69
2022/11/29 04:36:10;;;;;;;24.53;12.33;;;;;;;;;;4992848;28;20504;-68
2022/11/29 04:38:55;;;;;;;27.07;12.77;;;;;;;;;;4999270;28;20494;-70
2022/11/29 04:41:27;;;;;;;23.57;12.03;;;;;;;;;;5002671;28;20488;-69
2022/11/29 04:44:00;;;;;;;25.60;13.33;;;;;;;;;;5001901;28;20942;-70
2022/11/29 04:46:27;;;;;;;25.20;12.13;;;;;;;;;;5002070;28;20454;-70
2022/11/29 04:48:57;;;;;;;27.63;13.50;;;;;;;;;;5000646;28;20988;-70
2022/11/29 04:51:43;;;;;;;27.23;13.23;;;;;;;;;;4991122;28;20456;-70
2022/11/29 04:54:25;;;;;;;22.13;12.10;;;;;;;;;;4981796;28;20552;-69
2022/11/29 04:57:15;;;;;;;23.73;12.33;;;;;;;;;;5012735;28;20949;-69
2022/11/29 04:59:43;;;;;;;22.33;11.80;;;;;;;;;;5008002;28;20469;-69
2022/11/29 05:02:19;;;;;;;20.83;12.37;;;;;;;;;;4985140;28;20519;-69
2022/11/29 05:05:15;;;;;;;23.17;11.77;;;;;;;;;;4989743;28;20447;-71
2022/11/29 05:07:44;;;;;;;23.33;13.07;;;;;;;;;;5001526;28;20533;-70
2022/11/29 05:10:29;;;;;;;21.97;13.27;;;;;;;;;;4984471;28;20821;-68
2022/11/29 05:13:09;;;;;;;22.13;12.83;;;;;;;;;;4986756;28;20554;-69
2022/11/29 05:15:38;;;;;;;22.73;12.13;;;;;;;;;;4979213;28;20508;-69
2022/11/29 05:18:26;;;;;;;25.20;13.03;;;;;;;;;;5021801;28;21421;-69
2022/11/29 05:21:19;;;;;;;23.93;12.37;;;;;;;;;;5007441;28;21333;-71
2022/11/29 05:23:48;;;;;;;25.37;12.63;;;;;;;;;;4987231;28;20510;-74
2022/11/29 05:26:25;;;;;;;25.53;13.30;;;;;;;;;;5007353;28;20455;-71
2022/11/29 05:29:10;;;;;;;22.70;13.07;;;;;;;;;;5001364;28;20505;-72
2022/11/29 05:31:55;;;;;;;24.47;12.00;;;;;;;;;;4997700;28;20505;-71
2022/11/29 05:34:41;;;;;;;24.50;12.80;;;;;;;;;;4989146;28;20999;-72
2022/11/29 05:37:12;;;;;;;22.30;12.47;;;;;;;;;;4987320;28;20546;-73
2022/11/29 05:39:41;;;;;;;24.97;13.23;;;;;;;;;;4990912;28;20466;-72
2022/11/29 05:42:24;;;;;;;26.60;13.03;;;;;;;;;;4962166;28;20791;-69
2022/11/29 05:44:52;;;;;;;26.07;14.27;;;;;;;;;;4989061;28;20445;-70
2022/11/29 05:47:21;;;;;;;25.47;13.50;;;;;;;;;;5009589;28;20483;-70
2022/11/29 05:50:28;;;;;;;25.67;13.10;;;;;;;;;;4993073;28;20448;-70
2022/11/29 05:53:10;;;;;;;25.40;13.43;;;;;;;;;;4988941;28;20983;-70
2022/11/29 05:55:46;;;;;;;27.63;14.57;;;;;;;;;;4984413;28;20944;-70
2022/11/29 05:58:17;;;;;;;25.13;13.43;;;;;;;;;;4988614;28;20482;-70
2022/11/29 06:00:47;;;;;;;28.20;14.47;;;;;;;;;;5000713;28;20461;-70
2022/11/29 06:03:24;;;;;;;27.40;14.57;;;;;;;;;;4977066;28;21030;-71
2022/11/29 06:05:59;;;;;;;25.20;13.87;;;;;;;;;;5002532;28;20454;-67
2022/11/29 06:08:39;;;;;;;26.57;13.63;;;;;;;;;;4969476;28;20474;-68
2022/11/29 06:11:12;;;;;;;26.97;14.17;;;;;;;;;;4983367;28;20495;-70
2022/11/29 06:13:50;;;;;;;27.83;14.57;;;;;;;;;;4989165;28;21291;-67
2022/11/29 06:16:18;;;;;;;27.07;14.43;;;;;;;;;;4987303;28;20479;-68
2022/11/29 06:19:04;;;;;;;26.60;14.13;;;;;;;;;;5016390;28;20489;-69
2022/11/29 06:21:41;;;;;;;27.60;15.17;;;;;;;;;;4995218;28;20957;-69
2022/11/29 06:24:27;;;;;;;25.17;14.50;;;;;;;;;;4994568;28;21047;-66
2022/11/29 06:27:05;;;;;;;27.87;13.50;;;;;;;;;;5008486;28;20561;-67
2022/11/29 06:29:51;;;;;;;26.80;14.23;;;;;;;;;;5008673;28;20467;-67
2022/11/29 06:32:39;;;;;;;27.40;14.53;;;;;;;;;;4991311;28;20434;-66
2022/11/29 06:35:11;;;;;;;26.83;14.43;;;;;;;;;;5008579;28;20545;-66
2022/11/29 06:37:38;;;;;;;27.03;15.47;;;;;;;;;;5008728;28;20455;-67
2022/11/29 06:40:05;;;;;;;26.10;14.17;;;;;;;;;;5008308;28;20840;-68
2022/11/29 06:42:32;;;;;;;25.37;14.57;;;;;;;;;;5008535;28;20431;-68
2022/11/29 06:44:59;;;;;;;29.20;14.97;;;;;;;;;;5008939;28;20463;-68
2022/11/29 06:47:26;;;;;;;28.43;14.63;;;;;;;;;;5008318;28;20453;-68
2022/11/29 06:49:55;;;;;;;27.57;14.73;;;;;;;;;;5000647;28;20431;-68
2022/11/29 06:52:26;;;;;;;25.73;14.60;;;;;;;;;;5018558;28;20532;-66
2022/11/29 06:55:12;;;;;;;29.03;14.90;;;;;;;;;;5008127;28;20498;-66
2022/11/29 06:57:59;;;;;;;28.03;15.70;;;;;;;;;;4996334;28;20444;-66
2022/11/29 07:00:26;;;;;;;25.83;14.53;;;;;;;;;;4998846;28;20447;-66
2022/11/29 07:03:06;;;;;;;23.40;13.43;;;;;;;;;;5025753;28;20430;-67
2022/11/29 07:05:34;;;;;;;23.37;13.33;;;;;;;;;;5025674;28;20430;-67
2022/11/29 07:08:04;;;;;;;24.57;13.93;;;;;;;;;;5008637;28;20457;-67
2022/11/29 07:10:32;;;;;;;26.70;14.33;;;;;;;;;;5026166;28;20484;-68
2022/11/29 07:12:59;;;;;;;25.87;14.93;;;;;;;;;;5012672;28;20497;-66
2022/11/29 07:15:27;;;;;;;27.43;15.13;;;;;;;;;;5006070;28;20466;-67
2022/11/29 07:17:56;;;;;;;24.80;13.70;;;;;;;;;;5025631;28;20461;-67
2022/11/29 07:20:52;;;;;;;28.07;14.63;;;;;;;;;;5025227;28;20437;-67
2022/11/29 07:23:24;;;;;;;27.07;14.17;;;;;;;;;;4939042;28;20494;-68
2022/11/29 07:26:06;;;;;;;27.27;14.43;;;;;;;;;;4988907;28;20512;-68
2022/11/29 07:28:52;;;;;;;27.17;13.70;;;;;;;;;;5006804;28;20439;-66
2022/11/29 07:31:34;;;;;;;25.70;14.90;;;;;;;;;;5025118;28;20446;-65
2022/11/29 07:34:16;;;;;;;29.27;15.33;;;;;;;;;;5029433;28;20446;-64
2022/11/29 07:36:48;;;;;;;28.00;14.87;;;;;;;;;;5029234;28;20450;-64
2022/11/29 07:39:39;;;;;;;29.40;15.83;;;;;;;;;;5028891;28;20795;-66
2022/11/29 07:42:12;;;;;;;27.47;14.20;;;;;;;;;;5014116;28;20457;-65
2022/11/29 07:44:54;;;;;;;26.37;14.43;;;;;;;;;;5028140;28;20442;-65
2022/11/29 07:47:21;;;;;;;25.87;15.07;;;;;;;;;;4997492;28;20446;-65
2022/11/29 07:49:48;;;;;;;26.83;14.90;;;;;;;;;;5016006;28;20441;-65
2022/11/29 07:52:14;;;;;;;28.23;14.83;;;;;;;;;;5028052;28;20563;-65
2022/11/29 07:54:41;;;;;;;26.77;15.00;;;;;;;;;;5028089;28;20481;-65
2022/11/29 07:57:08;;;;;;;30.70;16.37;;;;;;;;;;5025468;28;20797;-65
2022/11/29 07:59:35;;;;;;;29.30;16.13;;;;;;;;;;5010784;28;20497;-65
2022/11/29 08:02:01;;;;;;;30.00;16.17;;;;;;;;;;5028271;28;20446;-65
2022/11/29 08:04:45;;;;;;;31.57;17.43;;;;;;;;;;5010520;28;20439;-65
2022/11/29 08:07:15;;;;;;;28.83;15.87;;;;;;;;;;5005912;28;20437;-66
2022/11/29 08:09:44;;;;;;;29.83;16.93;;;;;;;;;;5030046;28;20508;-64
2022/11/29 08:12:11;;;;;;;28.00;16.07;;;;;;;;;;5030888;28;20801;-64
2022/11/29 08:14:37;;;;;;;30.60;16.70;;;;;;;;;;5030517;28;20945;-64
2022/11/29 08:17:04;;;;;;;31.47;16.67;;;;;;;;;;5030891;28;20516;-64
2022/11/29 08:19:31;;;;;;;33.10;16.03;;;;;;;;;;5031157;28;20477;-64
2022/11/29 08:21:57;;;;;;;29.40;16.10;;;;;;;;;;5012655;28;20850;-65
2022/11/29 08:24:25;;;;;;;32.50;16.53;;;;;;;;;;5030539;28;20477;-64
2022/11/29 08:26:51;;;;;;;32.37;17.10;;;;;;;;;;5030881;28;20453;-64
2022/11/29 08:29:18;;;;;;;31.37;16.20;;;;;;;;;;5030370;28;20424;-65
2022/11/29 08:31:44;;;;;;;31.13;16.53;;;;;;;;;;5031029;28;20508;-64
2022/11/29 08:34:11;;;;;;;30.63;16.83;;;;;;;;;;5030174;28;20437;-65
2022/11/29 08:36:38;;;;;;;29.97;16.70;;;;;;;;;;5030526;28;20446;-64
2022/11/29 08:39:04;;;;;;;35.70;16.37;;;;;;;;;;5030495;28;21007;-65
2022/11/29 08:41:35;;;;;;;31.03;15.90;;;;;;;;;;5029031;28;20437;-64
2022/11/29 08:44:01;;;;;;;31.47;16.80;;;;;;;;;;5012916;28;20972;-64
2022/11/29 08:47:34;;;;;;;31.00;16.97;;;;;;;;;;5012852;28;20427;-65
2022/11/29 08:49:15;;;;;;;31.93;16.47;;;;;;;;;;5011756;28;20443;-65
2022/11/29 08:51:41;;;;;;;30.17;16.27;;;;;;;;;;5012794;28;20484;-65
2022/11/29 08:54:08;;;;;;;29.13;16.00;;;;;;;;;;5029811;28;20435;-64
2022/11/29 08:56:37;;;;;;;31.63;16.13;;;;;;;;;;5029576;28;20532;-65
2022/11/29 08:59:24;;;;;;;30.53;16.27;;;;;;;;;;5029720;28;20909;-65
2022/11/29 09:01:50;;;;;;;31.43;17.73;;;;;;;;;;5030003;28;20435;-65
2022/11/29 09:04:17;;;;;;;31.57;16.57;;;;;;;;;;5029684;28;20798;-65
2022/11/29 09:06:44;;;;;;;33.47;16.70;;;;;;;;;;5029977;28;20430;-64
2022/11/29 09:09:10;;;;;;;32.73;16.73;;;;;;;;;;5029343;28;20434;-65
2022/11/29 09:11:37;;;;;;;30.77;16.83;;;;;;;;;;5028928;28;20897;-65
2022/11/29 09:14:04;;;;;;;35.93;17.80;;;;;;;;;;5009821;28;20436;-65
2022/11/29 09:16:32;;;;;;;32.90;17.60;;;;;;;;;;5009890;28;20521;-64
2022/11/29 09:18:59;;;;;;;34.60;17.73;;;;;;;;;;5009843;28;20574;-64
2022/11/29 09:21:26;;;;;;;34.50;17.43;;;;;;;;;;5009749;28;20470;-64
2022/11/29 09:23:58;;;;;;;40.47;18.27;;;;;;;;;;5009470;28;20443;-65
2022/11/29 09:26:26;;;;;;;33.10;17.53;;;;;;;;;;5009651;28;20881;-65
2022/11/29 09:28:53;;;;;;;31.23;16.73;;;;;;;;;;5009708;28;20467;-65
2022/11/29 09:31:20;;;;;;;31.63;16.60;;;;;;;;;;5009555;28;20450;-65
2022/11/29 09:33:47;;;;;;;38.93;19.20;;;;;;;;;;5009296;28;20429;-64
2022/11/29 09:36:13;;;;;;;35.80;18.63;;;;;;;;;;5009312;28;20443;-65
2022/11/29 09:38:40;;;;;;;34.93;18.63;;;;;;;;;;5009469;28;20594;-64
2022/11/29 09:41:17;;;;;;;36.03;17.90;;;;;;;;;;5008896;28;20443;-65
2022/11/29 09:43:46;;;;;;;37.33;18.70;;;;;;;;;;4992434;28;20434;-65
2022/11/29 09:46:16;;;;;;;36.73;18.83;;;;;;;;;;5009163;28;20433;-64
2022/11/29 09:48:46;;;;;;;35.43;18.03;;;;;;;;;;4992270;28;20505;-64
2022/11/29 09:51:19;;;;;;;34.77;18.13;;;;;;;;;;5009082;28;20491;-64
2022/11/29 09:54:04;;;;;;;34.50;18.50;;;;;;;;;;5008652;28;20435;-65
2022/11/29 09:56:37;;;;;;;35.63;18.20;;;;;;;;;;5009076;28;20883;-65
2022/11/29 09:59:11;;;;;;;39.27;19.53;;;;;;;;;;4991579;28;20462;-65
2022/11/29 10:01:38;;;;;;;37.57;18.30;;;;;;;;;;4992054;28;20481;-64
2022/11/29 10:04:08;;;;;;;38.93;18.07;;;;;;;;;;5008839;28;21272;-65
2022/11/29 10:06:37;;;;;;;37.37;18.13;;;;;;;;;;5008771;28;20431;-64
2022/11/29 10:09:21;;;;;;;35.27;18.87;;;;;;;;;;4993914;28;20430;-65
2022/11/29 10:12:07;;;;;;;37.77;18.93;;;;;;;;;;4993273;28;20437;-65
2022/11/29 10:14:38;;;;;;;36.20;19.97;;;;;;;;;;5027907;28;20525;-65
2022/11/29 10:17:11;;;;;;;37.17;18.17;;;;;;;;;;5011026;28;20548;-65
2022/11/29 10:19:57;;;;;;;38.50;19.90;;;;;;;;;;5028343;28;20496;-64
2022/11/29 10:22:48;;;;;;;37.90;19.47;;;;;;;;;;5011116;28;20450;-64
2022/11/29 10:25:20;;;;;;;39.87;20.47;;;;;;;;;;5017794;28;20453;-64
2022/11/29 10:27:47;;;;;;;39.77;20.37;;;;;;;;;;5028342;28;20438;-64
2022/11/29 10:30:14;;;;;;;34.53;19.63;;;;;;;;;;5028115;28;20436;-65
2022/11/29 10:32:41;;;;;;;37.37;19.10;;;;;;;;;;5028599;28;20438;-64
2022/11/29 10:35:11;;;;;;;34.87;18.53;;;;;;;;;;5010659;28;20432;-65
2022/11/29 10:37:37;;;;;;;39.03;19.97;;;;;;;;;;5028329;28;20434;-64
2022/11/29 10:40:06;;;;;;;37.77;21.10;;;;;;;;;;5010374;28;20482;-65
2022/11/29 10:42:48;;;;;;;37.97;19.20;;;;;;;;;;5010947;28;20440;-65
2022/11/29 10:45:34;;;;;;;37.90;19.63;;;;;;;;;;5028117;28;20459;-64
2022/11/29 10:48:01;;;;;;;37.30;19.67;;;;;;;;;;5010498;28;20468;-65
2022/11/29 10:50:29;;;;;;;40.77;20.23;;;;;;;;;;5010373;28;20427;-64
2022/11/29 10:53:00;;;;;;;40.67;19.50;;;;;;;;;;5028333;28;20468;-66
2022/11/29 10:55:26;;;;;;;41.47;19.43;;;;;;;;;;5010553;28;20465;-64
2022/11/29 10:58:12;;;;;;;38.93;19.77;;;;;;;;;;5010521;28;20552;-64
2022/11/29 11:00:57;;;;;;;43.90;20.23;;;;;;;;;;5028068;28;20462;-64
2022/11/29 11:03:27;;;;;;;37.37;19.33;;;;;;;;;;5010713;28;20553;-64
2022/11/29 11:06:00;;;;;;;39.27;20.50;;;;;;;;;;5030163;28;20500;-65
2022/11/29 11:08:26;;;;;;;41.23;19.57;;;;;;;;;;5031978;28;20430;-64
2022/11/29 11:10:54;;;;;;;38.30;18.93;;;;;;;;;;5031981;28;20428;-65
2022/11/29 11:13:27;;;;;;;41.00;19.80;;;;;;;;;;5016601;28;20441;-64
2022/11/29 11:16:16;;;;;;;38.13;19.43;;;;;;;;;;5010780;28;20474;-65
2022/11/29 11:18:43;;;;;;;39.93;20.47;;;;;;;;;;5012295;28;20566;-64
2022/11/29 11:21:10;;;;;;;41.90;20.97;;;;;;;;;;5011737;28;20416;-65
2022/11/29 11:23:40;;;;;;;41.97;21.50;;;;;;;;;;4994592;28;20526;-64
2022/11/29 11:26:09;;;;;;;39.10;19.50;;;;;;;;;;4994552;28;20442;-65
2022/11/29 11:28:41;;;;;;;41.80;20.40;;;;;;;;;;4994602;28;21001;-64
2022/11/29 11:31:08;;;;;;;43.93;21.13;;;;;;;;;;4994440;28;20911;-65
2022/11/29 11:33:36;;;;;;;42.10;20.43;;;;;;;;;;5011763;28;20978;-65
2022/11/29 11:36:06;;;;;;;40.13;19.43;;;;;;;;;;5011670;28;20439;-64
2022/11/29 11:38:40;;;;;;;38.33;19.77;;;;;;;;;;5011618;28;20442;-64
2022/11/29 11:44:39;;;;;;;41.40;20.67;;;;;;;;;;5011659;28;20436;-64
2022/11/29 11:47:17;;;;;;;38.43;20.67;;;;;;;;;;4995317;28;20435;-64
2022/11/29 11:49:48;;;;;;;44.43;21.17;;;;;;;;;;5012010;28;20455;-64
2022/11/29 11:52:22;;;;;;;43.30;21.67;;;;;;;;;;5011265;28;20477;-64
2022/11/29 11:54:53;;;;;;;43.60;20.63;;;;;;;;;;4994008;28;20526;-65
2022/11/29 11:57:20;;;;;;;44.07;20.90;;;;;;;;;;4994017;28;20493;-64
2022/11/29 11:59:47;;;;;;;42.03;21.30;;;;;;;;;;4993694;28;20474;-64
2022/11/29 12:02:49;;;;;;;46.23;22.30;;;;;;;;;;5010970;28;20967;-65
2022/11/29 12:05:33;;;;;;;40.90;19.90;;;;;;;;;;4931163;29;20437;-64
2022/11/29 12:08:00;;;;;;;43.33;21.03;;;;;;;;;;4988333;28;20505;-65
2022/11/29 12:10:34;;;;;;;46.10;21.10;;;;;;;;;;5011114;28;20436;-64
2022/11/29 12:13:01;;;;;;;43.63;20.30;;;;;;;;;;5006004;28;20481;-65
2022/11/29 12:15:29;;;;;;;42.83;22.03;;;;;;;;;;5012869;28;20516;-64
2022/11/29 12:17:55;;;;;;;38.13;20.27;;;;;;;;;;5013226;28;20466;-65
2022/11/29 12:20:22;;;;;;;34.47;19.13;;;;;;;;;;5031269;28;21200;-64
2022/11/29 12:23:02;;;;;;;41.83;20.07;;;;;;;;;;5031003;28;20508;-65
2022/11/29 12:25:30;;;;;;;37.53;19.70;;;;;;;;;;5013351;28;20436;-65
2022/11/29 12:27:57;;;;;;;43.03;20.20;;;;;;;;;;5012855;28;20899;-65
2022/11/29 12:30:24;;;;;;;41.30;21.73;;;;;;;;;;5030865;28;20436;-64
2022/11/29 12:32:54;;;;;;;39.53;21.10;;;;;;;;;;5030481;28;20523;-65
2022/11/29 12:35:39;;;;;;;39.80;20.27;;;;;;;;;;5013273;28;20428;-64
2022/11/29 12:38:11;;;;;;;42.77;21.10;;;;;;;;;;5030363;28;20452;-64
2022/11/29 12:41:02;;;;;;;39.97;19.80;;;;;;;;;;5015215;28;20469;-64
2022/11/29 12:43:44;;;;;;;45.03;20.53;;;;;;;;;;5030510;28;20437;-64
2022/11/29 12:46:11;;;;;;;42.93;20.83;;;;;;;;;;5030475;28;20490;-64
2022/11/29 12:48:57;;;;;;;38.43;20.03;;;;;;;;;;5030161;28;20430;-64
2022/11/29 12:51:47;;;;;;;43.70;21.50;;;;;;;;;;5030250;28;20419;-65
2022/11/29 12:54:26;;;;;;;41.23;20.20;;;;;;;;;;5012564;28;20436;-64
2022/11/29 12:56:59;;;;;;;39.37;20.80;;;;;;;;;;5012268;28;20444;-65
2022/11/29 12:59:30;;;;;;;41.90;20.83;;;;;;;;;;5030237;28;20475;-64
2022/11/29 13:02:01;;;;;;;37.83;19.83;;;;;;;;;;5012737;28;20429;-64
2022/11/29 13:04:31;;;;;;;45.00;20.47;;;;;;;;;;5012680;28;20429;-64
2022/11/29 13:07:11;;;;;;;36.37;19.23;;;;;;;;;;5029952;28;20843;-65
2022/11/29 13:09:50;;;;;;;40.20;20.07;;;;;;;;;;5012180;28;20448;-64
2022/11/29 13:12:23;;;;;;;38.63;20.20;;;;;;;;;;5011921;28;20488;-65
2022/11/29 13:15:07;;;;;;;40.10;20.77;;;;;;;;;;5029642;28;20469;-64
2022/11/29 13:17:33;;;;;;;37.90;20.37;;;;;;;;;;5029432;28;20862;-64
2022/11/29 13:20:01;;;;;;;45.67;21.93;;;;;;;;;;5029698;28;20463;-65
2022/11/29 13:22:28;;;;;;;38.93;20.70;;;;;;;;;;5012194;28;20428;-64
2022/11/29 13:24:58;;;;;;;42.90;21.17;;;;;;;;;;5029398;28;20438;-64
2022/11/29 13:27:35;;;;;;;41.77;21.77;;;;;;;;;;5011704;28;20460;-64
2022/11/29 13:30:03;;;;;;;43.17;21.67;;;;;;;;;;5012438;28;20440;-64
2022/11/29 13:32:32;;;;;;;44.37;21.63;;;;;;;;;;5029273;28;20490;-64
2022/11/29 13:35:04;;;;;;;43.37;21.17;;;;;;;;;;5029654;28;20442;-64
2022/11/29 13:37:38;;;;;;;44.67;21.90;;;;;;;;;;5029585;28;20445;-65
2022/11/29 13:40:10;;;;;;;41.67;22.17;;;;;;;;;;5029400;28;20477;-65
2022/11/29 13:42:44;;;;;;;45.40;22.43;;;;;;;;;;5028839;28;20439;-64
2022/11/29 13:45:25;;;;;;;45.30;22.37;;;;;;;;;;5011740;28;20442;-64
2022/11/29 13:47:53;;;;;;;44.10;23.60;;;;;;;;;;5011311;28;20818;-64
2022/11/29 13:50:35;;;;;;;43.47;22.90;;;;;;;;;;5029410;28;20434;-64
2022/11/29 13:53:03;;;;;;;43.40;22.33;;;;;;;;;;5029348;28;20447;-64
2022/11/29 13:55:30;;;;;;;41.33;21.73;;;;;;;;;;5011732;28;20450;-65
2022/11/29 13:58:25;;;;;;;42.27;22.23;;;;;;;;;;5029278;28;20492;-65
2022/11/29 14:01:10;;;;;;;43.50;23.30;;;;;;;;;;5028932;28;20481;-65
2022/11/29 14:03:38;;;;;;;46.10;23.27;;;;;;;;;;5028622;28;20465;-65
2022/11/29 14:06:09;;;;;;;45.63;23.20;;;;;;;;;;5011529;28;20789;-65
2022/11/29 14:08:35;;;;;;;50.30;23.97;;;;;;;;;;5010982;28;20514;-65
2022/11/29 14:11:27;;;;;;;44.43;23.27;;;;;;;;;;5028981;28;20426;-64
2022/11/29 14:13:59;;;;;;;44.20;22.50;;;;;;;;;;5010953;28;20441;-65
2022/11/29 14:16:26;;;;;;;46.73;24.27;;;;;;;;;;5012192;28;20532;-65
2022/11/29 14:19:08;;;;;;;43.73;23.07;;;;;;;;;;5011394;28;20431;-65
2022/11/29 14:21:53;;;;;;;49.60;24.17;;;;;;;;;;5011306;28;20438;-65
2022/11/29 14:24:35;;;;;;;45.60;22.83;;;;;;;;;;4993621;28;20450;-65
2022/11/29 14:27:19;;;;;;;47.43;24.50;;;;;;;;;;5009904;28;20841;-65
2022/11/29 14:29:46;;;;;;;44.70;22.60;;;;;;;;;;5011641;28;20859;-65
2022/11/29 14:32:27;;;;;;;47.40;23.63;;;;;;;;;;5011179;28;20492;-65
2022/11/29 14:35:12;;;;;;;44.50;23.70;;;;;;;;;;5011038;28;20446;-64
2022/11/29 14:38:02;;;;;;;47.43;23.70;;;;;;;;;;4993326;28;20444;-64
2022/11/29 14:40:41;;;;;;;45.20;23.37;;;;;;;;;;5010650;28;20483;-67
2022/11/29 14:43:17;;;;;;;45.53;24.90;;;;;;;;;;5011585;28;20439;-67
2022/11/29 14:45:43;;;;;;;45.80;24.43;;;;;;;;;;5011501;28;20443;-67
2022/11/29 14:48:29;;;;;;;46.20;23.67;;;;;;;;;;5010889;28;20435;-68
2022/11/29 14:51:14;;;;;;;42.03;22.60;;;;;;;;;;5010882;28;20435;-67
2022/11/29 14:53:43;;;;;;;47.13;24.10;;;;;;;;;;4993777;28;20497;-67
2022/11/29 14:56:41;;;;;;;46.47;24.37;;;;;;;;;;5011446;28;20431;-67